sensor_id;sensor_type;location;lat;lon;timestamp;temperature;humidity
59148;DHT22;44930;52.878;6.168;2023-04-25T00:04:32;6.20;99.90
59148;DHT22;44930;52.878;6.168;2023-04-25T00:06:59;6.30;99.90
59148;DHT22;44930;52.878;6.168;2023-04-25T00:09:27;5.80;99.90
59148;DHT22;44930;52.878;6.168;2023-04-25T00:11:53;6.40;99.90
59148;DHT22;44930;52.878;6.168;2023-04-25T00:14:18;6.40;99.90
59148;DHT22;44930;52.878;6.168;2023-04-25T00:16:44;6.20;99.90
59148;DHT22;44930;52.878;6.168;2023-04-25T00:19:10;6.20;99.90
59148;DHT22;44930;52.878;6.168;2023-04-25T00:21:36;6.10;99.90
59148;DHT22;44930;52.878;6.168;2023-04-25T00:28:55;6.10;99.90
59148;DHT22;44930;52.878;6.168;2023-04-25T00:31:21;6.00;99.90
59148;DHT22;44930;52.878;6.168;2023-04-25T00:33:47;6.00;99.90
59148;DHT22;44930;52.878;6.168;2023-04-25T00:36:13;6.10;99.90
59148;DHT22;44930;52.878;6.168;2023-04-25T00:38:39;5.80;99.90
59148;DHT22;44930;52.878;6.168;2023-04-25T00:41:07;6.10;99.90
59148;DHT22;44930;52.878;6.168;2023-04-25T00:43:32;6.00;99.90
59148;DHT22;44930;52.878;6.168;2023-04-25T00:46:00;6.00;99.90
59148;DHT22;44930;52.878;6.168;2023-04-25T00:48:26;5.80;99.90
59148;DHT22;44930;52.878;6.168;2023-04-25T00:50:54;5.90;99.90
59148;DHT22;44930;52.878;6.168;2023-04-25T00:53:23;5.80;99.90
59148;DHT22;44930;52.878;6.168;2023-04-25T00:55:50;5.70;99.90
59148;DHT22;44930;52.878;6.168;2023-04-25T00:58:20;5.80;99.90
59148;DHT22;44930;52.878;6.168;2023-04-25T01:00:48;5.70;99.90
59148;DHT22;44930;52.878;6.168;2023-04-25T01:03:15;5.70;99.90
59148;DHT22;44930;52.878;6.168;2023-04-25T01:05:45;5.70;99.90
59148;DHT22;44930;52.878;6.168;2023-04-25T01:08:13;6.10;99.90
59148;DHT22;44930;52.878;6.168;2023-04-25T01:10:38;5.90;99.90
59148;DHT22;44930;52.878;6.168;2023-04-25T01:13:04;5.90;99.90
59148;DHT22;44930;52.878;6.168;2023-04-25T01:15:29;5.90;99.90
59148;DHT22;44930;52.878;6.168;2023-04-25T01:17:55;6.10;99.90
59148;DHT22;44930;52.878;6.168;2023-04-25T01:20:22;5.90;99.90
59148;DHT22;44930;52.878;6.168;2023-04-25T01:25:15;5.90;99.90
59148;DHT22;44930;52.878;6.168;2023-04-25T01:27:42;6.00;99.90
59148;DHT22;44930;52.878;6.168;2023-04-25T01:30:08;6.00;99.90
59148;DHT22;44930;52.878;6.168;2023-04-25T01:32:34;6.00;99.90
59148;DHT22;44930;52.878;6.168;2023-04-25T01:35:08;6.10;99.90
59148;DHT22;44930;52.878;6.168;2023-04-25T01:37:36;6.10;99.90
59148;DHT22;44930;52.878;6.168;2023-04-25T01:40:02;6.10;99.90
59148;DHT22;44930;52.878;6.168;2023-04-25T01:42:27;6.10;99.90
59148;DHT22;44930;52.878;6.168;2023-04-25T01:44:53;6.10;99.90
59148;DHT22;44930;52.878;6.168;2023-04-25T01:47:19;6.10;99.90
59148;DHT22;44930;52.878;6.168;2023-04-25T01:52:10;5.80;99.90
59148;DHT22;44930;52.878;6.168;2023-04-25T01:54:36;6.00;99.90
59148;DHT22;44930;52.878;6.168;2023-04-25T01:57:01;6.00;99.90
59148;DHT22;44930;52.878;6.168;2023-04-25T01:59:27;6.10;99.90
59148;DHT22;44930;52.878;6.168;2023-04-25T02:01:52;6.10;99.90
59148;DHT22;44930;52.878;6.168;2023-04-25T02:04:18;5.80;99.90
59148;DHT22;44930;52.878;6.168;2023-04-25T02:06:43;6.10;99.90
59148;DHT22;44930;52.878;6.168;2023-04-25T02:09:09;6.10;99.90
59148;DHT22;44930;52.878;6.168;2023-04-25T02:11:35;6.10;99.90
59148;DHT22;44930;52.878;6.168;2023-04-25T02:14:00;6.10;99.90
59148;DHT22;44930;52.878;6.168;2023-04-25T02:16:26;6.10;99.90
59148;DHT22;44930;52.878;6.168;2023-04-25T02:18:51;6.10;99.90
59148;DHT22;44930;52.878;6.168;2023-04-25T02:21:18;5.90;99.90
59148;DHT22;44930;52.878;6.168;2023-04-25T02:23:43;6.10;99.90
59148;DHT22;44930;52.878;6.168;2023-04-25T02:26:11;6.10;99.90
59148;DHT22;44930;52.878;6.168;2023-04-25T02:28:36;6.00;99.90
59148;DHT22;44930;52.878;6.168;2023-04-25T02:31:02;5.80;99.90
59148;DHT22;44930;52.878;6.168;2023-04-25T02:35:54;6.00;99.90
59148;DHT22;44930;52.878;6.168;2023-04-25T02:38:19;6.00;99.90
59148;DHT22;44930;52.878;6.168;2023-04-25T02:40:45;6.10;99.90
59148;DHT22;44930;52.878;6.168;2023-04-25T02:43:10;6.10;99.90
59148;DHT22;44930;52.878;6.168;2023-04-25T02:45:36;6.10;99.90
59148;DHT22;44930;52.878;6.168;2023-04-25T02:48:03;6.20;99.90
59148;DHT22;44930;52.878;6.168;2023-04-25T02:50:29;6.20;99.90
59148;DHT22;44930;52.878;6.168;2023-04-25T02:52:54;6.20;99.90
59148;DHT22;44930;52.878;6.168;2023-04-25T02:55:20;6.10;99.90
59148;DHT22;44930;52.878;6.168;2023-04-25T02:57:45;6.00;99.90
59148;DHT22;44930;52.878;6.168;2023-04-25T03:00:11;6.30;99.90
59148;DHT22;44930;52.878;6.168;2023-04-25T03:05:05;6.20;99.90
59148;DHT22;44930;52.878;6.168;2023-04-25T03:09:57;6.10;99.90
59148;DHT22;44930;52.878;6.168;2023-04-25T03:14:49;6.10;99.90
59148;DHT22;44930;52.878;6.168;2023-04-25T03:19:40;5.90;99.90
59148;DHT22;44930;52.878;6.168;2023-04-25T03:22:05;5.80;99.90
59148;DHT22;44930;52.878;6.168;2023-04-25T03:29:23;5.70;99.90
59148;DHT22;44930;52.878;6.168;2023-04-25T03:31:51;5.70;99.90
59148;DHT22;44930;52.878;6.168;2023-04-25T03:34:17;5.70;99.90
59148;DHT22;44930;52.878;6.168;2023-04-25T03:36:42;5.70;99.90
59148;DHT22;44930;52.878;6.168;2023-04-25T03:39:08;5.60;99.90
59148;DHT22;44930;52.878;6.168;2023-04-25T03:41:34;5.70;99.90
59148;DHT22;44930;52.878;6.168;2023-04-25T03:43:59;5.70;99.90
59148;DHT22;44930;52.878;6.168;2023-04-25T03:46:25;5.60;99.90
59148;DHT22;44930;52.878;6.168;2023-04-25T03:48:50;5.70;99.90
59148;DHT22;44930;52.878;6.168;2023-04-25T03:51:16;5.70;99.90
59148;DHT22;44930;52.878;6.168;2023-04-25T03:53:41;5.70;99.90
59148;DHT22;44930;52.878;6.168;2023-04-25T03:56:07;5.80;99.90
59148;DHT22;44930;52.878;6.168;2023-04-25T03:58:32;5.80;99.90
59148;DHT22;44930;52.878;6.168;2023-04-25T04:00:58;5.80;99.90
59148;DHT22;44930;52.878;6.168;2023-04-25T04:03:23;5.70;99.90
59148;DHT22;44930;52.878;6.168;2023-04-25T04:05:49;5.70;99.90
59148;DHT22;44930;52.878;6.168;2023-04-25T04:10:41;5.80;99.90
59148;DHT22;44930;52.878;6.168;2023-04-25T04:13:06;5.90;99.90
59148;DHT22;44930;52.878;6.168;2023-04-25T04:15:32;5.80;99.90
59148;DHT22;44930;52.878;6.168;2023-04-25T04:17:58;5.80;99.90
59148;DHT22;44930;52.878;6.168;2023-04-25T04:20:28;5.70;99.90
59148;DHT22;44930;52.878;6.168;2023-04-25T04:22:54;5.70;99.90
59148;DHT22;44930;52.878;6.168;2023-04-25T04:25:19;5.80;99.90
59148;DHT22;44930;52.878;6.168;2023-04-25T04:27:45;5.70;99.90
59148;DHT22;44930;52.878;6.168;2023-04-25T04:30:11;5.80;99.90
59148;DHT22;44930;52.878;6.168;2023-04-25T04:32:37;5.70;99.90
59148;DHT22;44930;52.878;6.168;2023-04-25T04:37:30;5.70;99.90
59148;DHT22;44930;52.878;6.168;2023-04-25T04:39:55;5.80;99.90
59148;DHT22;44930;52.878;6.168;2023-04-25T04:42:21;5.70;99.90
59148;DHT22;44930;52.878;6.168;2023-04-25T04:47:13;5.70;99.90
59148;DHT22;44930;52.878;6.168;2023-04-25T04:49:39;5.70;99.90
59148;DHT22;44930;52.878;6.168;2023-04-25T04:52:05;5.70;99.90
59148;DHT22;44930;52.878;6.168;2023-04-25T04:54:31;5.60;99.90
59148;DHT22;44930;52.878;6.168;2023-04-25T04:56:56;5.60;99.90
59148;DHT22;44930;52.878;6.168;2023-04-25T04:59:22;5.60;99.90
59148;DHT22;44930;52.878;6.168;2023-04-25T05:01:48;5.80;99.90
59148;DHT22;44930;52.878;6.168;2023-04-25T05:04:13;5.60;99.90
59148;DHT22;44930;52.878;6.168;2023-04-25T05:09:05;5.60;99.90
59148;DHT22;44930;52.878;6.168;2023-04-25T05:11:31;5.60;99.90
59148;DHT22;44930;52.878;6.168;2023-04-25T05:13:57;5.60;99.90
59148;DHT22;44930;52.878;6.168;2023-04-25T05:16:22;5.50;99.90
59148;DHT22;44930;52.878;6.168;2023-04-25T05:18:48;5.70;99.90
59148;DHT22;44930;52.878;6.168;2023-04-25T05:23:40;6.10;99.90
59148;DHT22;44930;52.878;6.168;2023-04-25T05:26:05;6.10;99.90
59148;DHT22;44930;52.878;6.168;2023-04-25T05:28:31;6.20;99.90
59148;DHT22;44930;52.878;6.168;2023-04-25T05:30:57;6.20;99.90
59148;DHT22;44930;52.878;6.168;2023-04-25T05:33:23;6.00;99.90
59148;DHT22;44930;52.878;6.168;2023-04-25T05:35:48;5.80;99.90
59148;DHT22;44930;52.878;6.168;2023-04-25T05:38:14;6.00;99.90
59148;DHT22;44930;52.878;6.168;2023-04-25T05:40:40;6.10;99.90
59148;DHT22;44930;52.878;6.168;2023-04-25T05:43:06;6.00;99.90
59148;DHT22;44930;52.878;6.168;2023-04-25T05:47:58;6.20;99.90
59148;DHT22;44930;52.878;6.168;2023-04-25T05:50:23;6.10;99.90
59148;DHT22;44930;52.878;6.168;2023-04-25T05:52:50;5.80;99.90
59148;DHT22;44930;52.878;6.168;2023-04-25T05:55:16;6.00;99.90
59148;DHT22;44930;52.878;6.168;2023-04-25T05:57:41;6.20;99.90
59148;DHT22;44930;52.878;6.168;2023-04-25T06:00:09;6.20;99.90
59148;DHT22;44930;52.878;6.168;2023-04-25T06:02:35;6.20;99.90
59148;DHT22;44930;52.878;6.168;2023-04-25T06:05:01;6.20;99.90
59148;DHT22;44930;52.878;6.168;2023-04-25T06:07:29;6.40;99.90
59148;DHT22;44930;52.878;6.168;2023-04-25T06:09:55;6.30;99.90
59148;DHT22;44930;52.878;6.168;2023-04-25T06:14:47;6.10;99.90
59148;DHT22;44930;52.878;6.168;2023-04-25T06:17:12;6.10;99.90
59148;DHT22;44930;52.878;6.168;2023-04-25T06:19:38;6.20;99.90
59148;DHT22;44930;52.878;6.168;2023-04-25T06:22:04;6.30;99.90
59148;DHT22;44930;52.878;6.168;2023-04-25T06:24:29;6.60;99.90
59148;DHT22;44930;52.878;6.168;2023-04-25T06:29:21;6.60;99.90
59148;DHT22;44930;52.878;6.168;2023-04-25T06:31:46;6.60;99.90
59148;DHT22;44930;52.878;6.168;2023-04-25T06:34:12;6.50;99.90
59148;DHT22;44930;52.878;6.168;2023-04-25T06:36:38;6.90;99.90
59148;DHT22;44930;52.878;6.168;2023-04-25T06:39:03;6.70;99.90
59148;DHT22;44930;52.878;6.168;2023-04-25T06:43:55;6.80;99.90
59148;DHT22;44930;52.878;6.168;2023-04-25T06:46:20;6.90;99.90
59148;DHT22;44930;52.878;6.168;2023-04-25T06:48:46;6.70;99.90
59148;DHT22;44930;52.878;6.168;2023-04-25T06:51:11;6.70;99.90
59148;DHT22;44930;52.878;6.168;2023-04-25T06:53:38;6.60;99.90
59148;DHT22;44930;52.878;6.168;2023-04-25T06:56:04;6.60;99.90
59148;DHT22;44930;52.878;6.168;2023-04-25T06:58:30;6.60;99.90
59148;DHT22;44930;52.878;6.168;2023-04-25T07:00:55;6.70;99.90
59148;DHT22;44930;52.878;6.168;2023-04-25T07:03:21;6.70;99.90
59148;DHT22;44930;52.878;6.168;2023-04-25T07:05:46;6.70;99.90
59148;DHT22;44930;52.878;6.168;2023-04-25T07:08:12;6.80;99.90
59148;DHT22;44930;52.878;6.168;2023-04-25T07:10:38;7.00;99.90
59148;DHT22;44930;52.878;6.168;2023-04-25T07:13:03;7.00;99.90
59148;DHT22;44930;52.878;6.168;2023-04-25T07:15:29;7.20;99.90
59148;DHT22;44930;52.878;6.168;2023-04-25T07:17:54;7.10;99.90
59148;DHT22;44930;52.878;6.168;2023-04-25T07:20:20;7.20;99.90
59148;DHT22;44930;52.878;6.168;2023-04-25T07:22:46;7.20;99.90
59148;DHT22;44930;52.878;6.168;2023-04-25T07:25:11;7.50;99.90
59148;DHT22;44930;52.878;6.168;2023-04-25T07:27:37;7.50;99.90
59148;DHT22;44930;52.878;6.168;2023-04-25T07:30:04;7.50;99.90
59148;DHT22;44930;52.878;6.168;2023-04-25T07:32:30;7.40;99.90
59148;DHT22;44930;52.878;6.168;2023-04-25T07:34:55;7.30;99.90
59148;DHT22;44930;52.878;6.168;2023-04-25T07:37:21;7.50;99.90
59148;DHT22;44930;52.878;6.168;2023-04-25T07:39:47;7.50;99.90
59148;DHT22;44930;52.878;6.168;2023-04-25T07:42:13;7.50;99.90
59148;DHT22;44930;52.878;6.168;2023-04-25T07:44:38;7.80;99.90
59148;DHT22;44930;52.878;6.168;2023-04-25T07:49:33;7.50;99.90
59148;DHT22;44930;52.878;6.168;2023-04-25T07:52:00;6.90;99.90
59148;DHT22;44930;52.878;6.168;2023-04-25T07:54:26;6.30;99.90
59148;DHT22;44930;52.878;6.168;2023-04-25T07:56:51;6.20;99.90
59148;DHT22;44930;52.878;6.168;2023-04-25T07:59:17;6.00;99.90
59148;DHT22;44930;52.878;6.168;2023-04-25T08:01:42;5.80;99.90
59148;DHT22;44930;52.878;6.168;2023-04-25T08:04:08;5.70;99.90
59148;DHT22;44930;52.878;6.168;2023-04-25T08:06:34;6.00;99.90
59148;DHT22;44930;52.878;6.168;2023-04-25T08:09:00;6.00;99.90
59148;DHT22;44930;52.878;6.168;2023-04-25T08:11:25;5.90;99.90
59148;DHT22;44930;52.878;6.168;2023-04-25T08:13:51;6.20;99.90
59148;DHT22;44930;52.878;6.168;2023-04-25T08:16:16;6.50;99.90
59148;DHT22;44930;52.878;6.168;2023-04-25T08:18:42;6.50;99.90
59148;DHT22;44930;52.878;6.168;2023-04-25T08:21:08;6.80;99.90
59148;DHT22;44930;52.878;6.168;2023-04-25T08:26:02;7.10;99.90
59148;DHT22;44930;52.878;6.168;2023-04-25T08:28:28;7.40;99.90
59148;DHT22;44930;52.878;6.168;2023-04-25T08:30:54;7.70;99.90
59148;DHT22;44930;52.878;6.168;2023-04-25T08:33:19;7.70;99.90
59148;DHT22;44930;52.878;6.168;2023-04-25T08:35:46;7.90;99.90
59148;DHT22;44930;52.878;6.168;2023-04-25T08:38:12;8.40;99.90
59148;DHT22;44930;52.878;6.168;2023-04-25T08:40:38;8.50;99.90
59148;DHT22;44930;52.878;6.168;2023-04-25T08:43:06;8.50;99.90
59148;DHT22;44930;52.878;6.168;2023-04-25T08:45:39;8.60;99.90
59148;DHT22;44930;52.878;6.168;2023-04-25T08:50:34;8.40;99.90
59148;DHT22;44930;52.878;6.168;2023-04-25T08:53:00;8.50;99.90
59148;DHT22;44930;52.878;6.168;2023-04-25T08:55:27;8.50;99.90
59148;DHT22;44930;52.878;6.168;2023-04-25T08:57:54;8.30;99.90
59148;DHT22;44930;52.878;6.168;2023-04-25T09:00:22;8.20;99.90
59148;DHT22;44930;52.878;6.168;2023-04-25T09:02:48;8.60;99.90
59148;DHT22;44930;52.878;6.168;2023-04-25T09:05:14;8.70;99.90
59148;DHT22;44930;52.878;6.168;2023-04-25T09:07:39;8.90;99.90
59148;DHT22;44930;52.878;6.168;2023-04-25T09:10:05;9.00;99.90
59148;DHT22;44930;52.878;6.168;2023-04-25T09:12:31;9.50;99.90
59148;DHT22;44930;52.878;6.168;2023-04-25T09:15:08;9.00;99.90
59148;DHT22;44930;52.878;6.168;2023-04-25T09:17:34;9.40;99.90
59148;DHT22;44930;52.878;6.168;2023-04-25T09:20:11;9.60;99.90
59148;DHT22;44930;52.878;6.168;2023-04-25T09:22:37;9.50;99.90
59148;DHT22;44930;52.878;6.168;2023-04-25T09:25:13;9.60;99.90
59148;DHT22;44930;52.878;6.168;2023-04-25T09:27:54;9.80;99.90
59148;DHT22;44930;52.878;6.168;2023-04-25T09:30:32;9.90;99.90
59148;DHT22;44930;52.878;6.168;2023-04-25T09:33:07;9.70;99.90
59148;DHT22;44930;52.878;6.168;2023-04-25T09:35:37;9.60;99.90
59148;DHT22;44930;52.878;6.168;2023-04-25T09:38:11;10.30;99.90
59148;DHT22;44930;52.878;6.168;2023-04-25T09:40:45;9.80;99.90
59148;DHT22;44930;52.878;6.168;2023-04-25T09:43:22;9.60;99.90
59148;DHT22;44930;52.878;6.168;2023-04-25T09:45:48;9.50;99.90
59148;DHT22;44930;52.878;6.168;2023-04-25T09:48:18;9.30;99.90
59148;DHT22;44930;52.878;6.168;2023-04-25T09:50:45;9.00;99.90
59148;DHT22;44930;52.878;6.168;2023-04-25T09:53:15;8.70;99.90
59148;DHT22;44930;52.878;6.168;2023-04-25T09:55:42;8.60;99.90
59148;DHT22;44930;52.878;6.168;2023-04-25T09:58:11;8.40;99.90
59148;DHT22;44930;52.878;6.168;2023-04-25T10:00:37;8.40;99.90
59148;DHT22;44930;52.878;6.168;2023-04-25T10:03:05;8.50;99.90
59148;DHT22;44930;52.878;6.168;2023-04-25T10:05:32;8.80;99.90
59148;DHT22;44930;52.878;6.168;2023-04-25T10:08:02;9.10;99.90
59148;DHT22;44930;52.878;6.168;2023-04-25T10:10:29;9.00;99.90
59148;DHT22;44930;52.878;6.168;2023-04-25T10:12:58;8.90;99.90
59148;DHT22;44930;52.878;6.168;2023-04-25T10:15:24;8.90;99.90
59148;DHT22;44930;52.878;6.168;2023-04-25T10:17:50;8.60;99.90
59148;DHT22;44930;52.878;6.168;2023-04-25T10:20:16;8.40;99.90
59148;DHT22;44930;52.878;6.168;2023-04-25T10:22:44;8.40;99.90
59148;DHT22;44930;52.878;6.168;2023-04-25T10:25:11;8.60;99.90
59148;DHT22;44930;52.878;6.168;2023-04-25T10:27:38;8.60;99.90
59148;DHT22;44930;52.878;6.168;2023-04-25T10:32:35;8.60;99.90
59148;DHT22;44930;52.878;6.168;2023-04-25T10:35:15;8.90;99.90
59148;DHT22;44930;52.878;6.168;2023-04-25T10:40:26;9.10;99.90
59148;DHT22;44930;52.878;6.168;2023-04-25T10:42:53;9.20;99.90
59148;DHT22;44930;52.878;6.168;2023-04-25T10:45:20;9.20;99.90
59148;DHT22;44930;52.878;6.168;2023-04-25T10:47:46;9.50;99.90
59148;DHT22;44930;52.878;6.168;2023-04-25T10:50:17;9.60;99.90
59148;DHT22;44930;52.878;6.168;2023-04-25T10:52:42;9.70;99.90
59148;DHT22;44930;52.878;6.168;2023-04-25T10:55:09;10.00;99.90
59148;DHT22;44930;52.878;6.168;2023-04-25T10:57:45;9.90;99.90
59148;DHT22;44930;52.878;6.168;2023-04-25T11:00:17;9.90;99.90
59148;DHT22;44930;52.878;6.168;2023-04-25T11:03:02;9.90;99.90
59148;DHT22;44930;52.878;6.168;2023-04-25T11:05:32;10.30;99.90
59148;DHT22;44930;52.878;6.168;2023-04-25T11:07:58;10.10;99.90
59148;DHT22;44930;52.878;6.168;2023-04-25T11:10:28;10.20;99.90
59148;DHT22;44930;52.878;6.168;2023-04-25T11:12:54;9.60;99.90
59148;DHT22;44930;52.878;6.168;2023-04-25T11:15:20;10.00;99.90
59148;DHT22;44930;52.878;6.168;2023-04-25T11:20:13;9.90;99.90
59148;DHT22;44930;52.878;6.168;2023-04-25T11:22:39;9.90;99.90
59148;DHT22;44930;52.878;6.168;2023-04-25T11:25:09;10.00;99.90
59148;DHT22;44930;52.878;6.168;2023-04-25T11:27:38;10.20;99.90
59148;DHT22;44930;52.878;6.168;2023-04-25T11:30:12;10.80;99.90
59148;DHT22;44930;52.878;6.168;2023-04-25T11:32:39;10.70;99.90
59148;DHT22;44930;52.878;6.168;2023-04-25T11:35:06;10.50;99.90
59148;DHT22;44930;52.878;6.168;2023-04-25T11:37:32;10.30;99.90
59148;DHT22;44930;52.878;6.168;2023-04-25T11:39:59;10.40;99.90
59148;DHT22;44930;52.878;6.168;2023-04-25T11:42:25;10.50;99.90
59148;DHT22;44930;52.878;6.168;2023-04-25T11:44:51;10.20;99.90
59148;DHT22;44930;52.878;6.168;2023-04-25T11:47:17;10.10;99.90
59148;DHT22;44930;52.878;6.168;2023-04-25T11:49:42;10.10;99.90
59148;DHT22;44930;52.878;6.168;2023-04-25T11:52:08;10.00;99.90
59148;DHT22;44930;52.878;6.168;2023-04-25T11:54:37;10.50;99.90
59148;DHT22;44930;52.878;6.168;2023-04-25T11:57:03;10.60;99.90
59148;DHT22;44930;52.878;6.168;2023-04-25T11:59:29;10.70;99.90
59148;DHT22;44930;52.878;6.168;2023-04-25T12:01:55;10.40;99.90
59148;DHT22;44930;52.878;6.168;2023-04-25T12:04:24;10.50;99.90
59148;DHT22;44930;52.878;6.168;2023-04-25T12:06:51;10.50;99.90
59148;DHT22;44930;52.878;6.168;2023-04-25T12:09:31;10.50;99.90
59148;DHT22;44930;52.878;6.168;2023-04-25T12:11:59;10.30;99.90
59148;DHT22;44930;52.878;6.168;2023-04-25T12:14:29;10.20;99.90
59148;DHT22;44930;52.878;6.168;2023-04-25T12:16:58;10.10;99.90
59148;DHT22;44930;52.878;6.168;2023-04-25T12:19:24;10.10;99.90
59148;DHT22;44930;52.878;6.168;2023-04-25T12:21:50;10.30;99.90
59148;DHT22;44930;52.878;6.168;2023-04-25T12:24:24;10.40;99.90
59148;DHT22;44930;52.878;6.168;2023-04-25T12:27:05;10.30;99.90
59148;DHT22;44930;52.878;6.168;2023-04-25T12:29:32;10.40;99.90
59148;DHT22;44930;52.878;6.168;2023-04-25T12:31:58;10.60;99.90
59148;DHT22;44930;52.878;6.168;2023-04-25T12:34:24;10.80;99.90
59148;DHT22;44930;52.878;6.168;2023-04-25T12:36:51;11.20;99.90
59148;DHT22;44930;52.878;6.168;2023-04-25T12:39:20;10.80;99.90
59148;DHT22;44930;52.878;6.168;2023-04-25T12:41:48;10.40;99.90
59148;DHT22;44930;52.878;6.168;2023-04-25T12:44:14;9.80;99.90
59148;DHT22;44930;52.878;6.168;2023-04-25T12:46:39;9.10;99.90
59148;DHT22;44930;52.878;6.168;2023-04-25T12:49:06;9.10;99.90
59148;DHT22;44930;52.878;6.168;2023-04-25T12:51:33;9.30;99.90
59148;DHT22;44930;52.878;6.168;2023-04-25T12:53:59;9.60;99.90
59148;DHT22;44930;52.878;6.168;2023-04-25T12:56:29;10.20;99.90
59148;DHT22;44930;52.878;6.168;2023-04-25T12:58:55;10.10;99.90
59148;DHT22;44930;52.878;6.168;2023-04-25T13:01:21;10.20;99.90
59148;DHT22;44930;52.878;6.168;2023-04-25T13:03:47;10.20;99.90
59148;DHT22;44930;52.878;6.168;2023-04-25T13:06:14;10.60;99.90
59148;DHT22;44930;52.878;6.168;2023-04-25T13:08:40;10.90;99.90
59148;DHT22;44930;52.878;6.168;2023-04-25T13:11:06;10.60;99.90
59148;DHT22;44930;52.878;6.168;2023-04-25T13:13:32;10.80;99.90
59148;DHT22;44930;52.878;6.168;2023-04-25T13:16:03;10.90;99.90
59148;DHT22;44930;52.878;6.168;2023-04-25T13:18:30;11.10;99.90
59148;DHT22;44930;52.878;6.168;2023-04-25T13:20:56;10.80;99.90
59148;DHT22;44930;52.878;6.168;2023-04-25T13:23:21;10.50;99.90
59148;DHT22;44930;52.878;6.168;2023-04-25T13:25:47;10.70;99.90
59148;DHT22;44930;52.878;6.168;2023-04-25T13:30:40;10.30;99.90
59148;DHT22;44930;52.878;6.168;2023-04-25T13:33:05;10.40;99.90
59148;DHT22;44930;52.878;6.168;2023-04-25T13:35:32;10.40;99.90
59148;DHT22;44930;52.878;6.168;2023-04-25T13:37:58;10.90;99.90
59148;DHT22;44930;52.878;6.168;2023-04-25T13:40:24;11.50;99.90
59148;DHT22;44930;52.878;6.168;2023-04-25T13:42:50;11.70;99.90
59148;DHT22;44930;52.878;6.168;2023-04-25T13:45:16;11.00;99.90
59148;DHT22;44930;52.878;6.168;2023-04-25T13:47:42;10.50;99.90
59148;DHT22;44930;52.878;6.168;2023-04-25T13:50:07;9.90;99.90
59148;DHT22;44930;52.878;6.168;2023-04-25T13:52:33;9.60;99.90
59148;DHT22;44930;52.878;6.168;2023-04-25T13:54:59;9.60;99.90
59148;DHT22;44930;52.878;6.168;2023-04-25T13:57:24;9.20;99.90
59148;DHT22;44930;52.878;6.168;2023-04-25T13:59:51;9.20;99.90
59148;DHT22;44930;52.878;6.168;2023-04-25T14:02:17;8.90;99.90
59148;DHT22;44930;52.878;6.168;2023-04-25T14:04:43;8.60;99.90
59148;DHT22;44930;52.878;6.168;2023-04-25T14:07:08;8.60;99.90
59148;DHT22;44930;52.878;6.168;2023-04-25T14:09:36;8.60;99.90
59148;DHT22;44930;52.878;6.168;2023-04-25T14:12:02;8.50;99.90
59148;DHT22;44930;52.878;6.168;2023-04-25T14:14:28;8.60;99.90
59148;DHT22;44930;52.878;6.168;2023-04-25T14:16:53;8.40;99.90
59148;DHT22;44930;52.878;6.168;2023-04-25T14:19:20;8.70;99.90
59148;DHT22;44930;52.878;6.168;2023-04-25T14:21:46;8.60;99.90
59148;DHT22;44930;52.878;6.168;2023-04-25T14:24:12;8.80;99.90
59148;DHT22;44930;52.878;6.168;2023-04-25T14:26:38;9.00;99.90
59148;DHT22;44930;52.878;6.168;2023-04-25T14:29:07;9.10;99.90
59148;DHT22;44930;52.878;6.168;2023-04-25T14:31:34;9.10;99.90
59148;DHT22;44930;52.878;6.168;2023-04-25T14:34:00;9.20;99.90
59148;DHT22;44930;52.878;6.168;2023-04-25T14:36:27;9.10;99.90
59148;DHT22;44930;52.878;6.168;2023-04-25T14:38:53;9.10;99.90
59148;DHT22;44930;52.878;6.168;2023-04-25T14:41:18;9.00;99.90
59148;DHT22;44930;52.878;6.168;2023-04-25T14:43:44;8.90;99.90
59148;DHT22;44930;52.878;6.168;2023-04-25T14:46:10;9.00;99.90
59148;DHT22;44930;52.878;6.168;2023-04-25T14:48:36;9.10;99.90
59148;DHT22;44930;52.878;6.168;2023-04-25T14:51:02;9.10;99.90
59148;DHT22;44930;52.878;6.168;2023-04-25T14:53:28;9.20;99.90
59148;DHT22;44930;52.878;6.168;2023-04-25T14:55:53;9.00;99.90
59148;DHT22;44930;52.878;6.168;2023-04-25T14:58:19;9.00;99.90
59148;DHT22;44930;52.878;6.168;2023-04-25T15:00:45;8.80;99.90
59148;DHT22;44930;52.878;6.168;2023-04-25T15:03:11;8.60;99.90
59148;DHT22;44930;52.878;6.168;2023-04-25T15:05:38;8.50;99.90
59148;DHT22;44930;52.878;6.168;2023-04-25T15:10:30;7.90;99.90
59148;DHT22;44930;52.878;6.168;2023-04-25T15:12:56;7.90;99.90
59148;DHT22;44930;52.878;6.168;2023-04-25T15:15:22;7.70;99.90
59148;DHT22;44930;52.878;6.168;2023-04-25T15:17:48;7.80;99.90
59148;DHT22;44930;52.878;6.168;2023-04-25T15:20:14;7.90;99.90
59148;DHT22;44930;52.878;6.168;2023-04-25T15:22:41;7.80;99.90
59148;DHT22;44930;52.878;6.168;2023-04-25T15:25:08;8.10;99.90
59148;DHT22;44930;52.878;6.168;2023-04-25T15:27:38;8.30;99.90
59148;DHT22;44930;52.878;6.168;2023-04-25T15:30:07;8.80;99.90
59148;DHT22;44930;52.878;6.168;2023-04-25T15:32:34;8.50;99.90
59148;DHT22;44930;52.878;6.168;2023-04-25T15:35:04;8.20;99.90
59148;DHT22;44930;52.878;6.168;2023-04-25T15:37:31;8.50;99.90
59148;DHT22;44930;52.878;6.168;2023-04-25T15:40:14;8.20;99.90
59148;DHT22;44930;52.878;6.168;2023-04-25T15:42:48;8.40;99.90
59148;DHT22;44930;52.878;6.168;2023-04-25T15:45:24;8.10;99.90
59148;DHT22;44930;52.878;6.168;2023-04-25T15:47:54;8.50;99.90
59148;DHT22;44930;52.878;6.168;2023-04-25T15:50:20;8.50;99.90
59148;DHT22;44930;52.878;6.168;2023-04-25T15:52:47;8.60;99.90
59148;DHT22;44930;52.878;6.168;2023-04-25T15:57:41;9.00;99.90
59148;DHT22;44930;52.878;6.168;2023-04-25T16:00:07;9.40;99.90
59148;DHT22;44930;52.878;6.168;2023-04-25T16:05:06;9.60;99.90
59148;DHT22;44930;52.878;6.168;2023-04-25T16:07:33;9.60;99.90
59148;DHT22;44930;52.878;6.168;2023-04-25T16:09:59;9.70;99.90
59148;DHT22;44930;52.878;6.168;2023-04-25T16:12:24;9.70;99.90
59148;DHT22;44930;52.878;6.168;2023-04-25T16:14:50;10.20;99.90
59148;DHT22;44930;52.878;6.168;2023-04-25T16:17:16;10.10;99.90
59148;DHT22;44930;52.878;6.168;2023-04-25T16:19:41;9.70;99.90
59148;DHT22;44930;52.878;6.168;2023-04-25T16:22:07;9.60;99.90
59148;DHT22;44930;52.878;6.168;2023-04-25T16:27:00;9.10;99.90
59148;DHT22;44930;52.878;6.168;2023-04-25T16:29:27;8.90;99.90
59148;DHT22;44930;52.878;6.168;2023-04-25T16:31:52;9.30;99.90
59148;DHT22;44930;52.878;6.168;2023-04-25T16:34:18;9.00;99.90
59148;DHT22;44930;52.878;6.168;2023-04-25T16:36:43;9.00;99.90
59148;DHT22;44930;52.878;6.168;2023-04-25T16:39:09;8.90;99.90
59148;DHT22;44930;52.878;6.168;2023-04-25T16:41:35;9.00;99.90
59148;DHT22;44930;52.878;6.168;2023-04-25T16:44:01;9.10;99.90
59148;DHT22;44930;52.878;6.168;2023-04-25T16:46:26;9.10;99.90
59148;DHT22;44930;52.878;6.168;2023-04-25T16:48:52;8.80;99.90
59148;DHT22;44930;52.878;6.168;2023-04-25T16:51:17;8.80;99.90
59148;DHT22;44930;52.878;6.168;2023-04-25T16:53:44;8.70;99.90
59148;DHT22;44930;52.878;6.168;2023-04-25T16:56:11;8.90;99.90
59148;DHT22;44930;52.878;6.168;2023-04-25T16:58:37;8.80;99.90